Time;durP1;ratioP1;P1;durP2;ratioP2;P2;SDS_P1;SDS_P2;PMS_P1;PMS_P2;Temp;Humidity;BMP_temperature;BMP_pressure;BME280_temperature;BME280_humidity;BME280_pressure;Samples;Min_cycle;Max_cycle;Signal;HPM_P1;HPM_P2
2022/05/01 00:00:52;;;;;;;32.30;27.63;;;10.40;99.90;;;;;;5068603;28;20572;-67
2022/05/01 00:06:31;;;;;;;37.40;28.70;;;10.40;99.90;;;;;;5022761;28;20442;-67
2022/05/01 00:09:16;;;;;;;46.27;32.10;;;10.30;99.90;;;;;;5013195;28;20461;-66
2022/05/01 00:12:24;;;;;;;38.80;30.47;;;10.20;99.90;;;;;;5028698;28;20446;-67
2022/05/01 00:18:06;;;;;;;42.80;29.53;;;10.20;99.90;;;;;;5049304;28;20436;-66
2022/05/01 00:20:59;;;;;;;39.33;29.60;;;10.20;99.90;;;;;;5049608;28;20468;-66
2022/05/01 00:23:41;;;;;;;43.80;29.03;;;10.10;99.90;;;;;;5049396;28;20440;-67
2022/05/01 00:26:22;;;;;;;43.10;29.50;;;10.10;99.90;;;;;;5049339;28;20475;-67
2022/05/01 00:29:05;;;;;;;39.40;28.97;;;10.10;99.90;;;;;;5072793;28;20513;-66
2022/05/01 00:32:04;;;;;;;46.63;31.90;;;10.00;99.90;;;;;;5072473;28;20465;-65
2022/05/01 00:41:07;;;;;;;41.17;29.87;;;10.10;99.90;;;;;;5043008;28;20442;-66
2022/05/01 00:44:09;;;;;;;39.13;29.37;;;10.10;99.90;;;;;;5072898;28;20450;-66
2022/05/01 00:46:53;;;;;;;38.60;30.00;;;10.00;99.90;;;;;;5071693;28;20504;-67
2022/05/01 00:49:38;;;;;;;38.03;29.23;;;10.00;99.90;;;;;;5072532;28;20520;-67
2022/05/01 00:55:29;;;;;;;43.00;29.27;;;10.10;99.90;;;;;;5068722;28;20544;-66
2022/05/01 00:58:12;;;;;;;38.40;29.33;;;10.20;99.90;;;;;;5062439;28;20451;-66
2022/05/01 01:04:04;;;;;;;34.70;27.70;;;10.30;99.90;;;;;;5069210;28;20451;-67
2022/05/01 01:09:40;;;;;;;;;;;;;;;;;;;;;
2022/05/01 01:13:02;;;;;;;38.83;29.27;;;10.30;99.90;;;;;;5052349;28;20474;-67
2022/05/01 01:15:54;;;;;;;34.30;26.57;;;10.40;99.90;;;;;;5069486;28;21092;-67
2022/05/01 01:18:38;;;;;;;33.80;27.10;;;10.40;99.90;;;;;;5071387;28;20491;-67
2022/05/01 01:21:40;;;;;;;37.40;29.47;;;10.50;99.90;;;;;;5071667;28;20520;-67
2022/05/01 01:24:36;;;;;;;38.60;29.10;;;10.40;99.90;;;;;;5071384;28;20521;-66
2022/05/01 01:33:00;;;;;;;35.20;26.83;;;10.40;99.90;;;;;;5071583;28;20426;-66
2022/05/01 01:35:39;;;;;;;35.73;26.27;;;10.50;99.90;;;;;;5071337;28;20937;-67
2022/05/01 01:38:34;;;;;;;35.90;27.77;;;10.40;99.90;;;;;;5060851;28;20436;-66
2022/05/01 01:45:01;;;;;;;36.90;28.67;;;10.30;99.90;;;;;;4987105;28;20456;-66
2022/05/01 01:47:44;;;;;;;37.10;28.13;;;10.30;99.90;;;;;;5051205;28;20455;-66
2022/05/01 01:50:28;;;;;;;35.97;27.97;;;10.20;99.90;;;;;;5051403;28;20462;-67
2022/05/01 01:53:21;;;;;;;36.97;28.40;;;10.30;99.90;;;;;;5050410;28;20463;-66
2022/05/01 01:55:57;;;;;;;33.13;25.63;;;10.20;99.90;;;;;;5062229;28;20526;-66
2022/05/01 01:58:37;;;;;;;35.83;28.80;;;10.30;99.90;;;;;;5070956;28;20474;-66
2022/05/01 02:01:11;;;;;;;37.37;29.23;;;10.30;99.90;;;;;;5070591;28;20455;-66
2022/05/01 02:06:34;;;;;;;37.13;30.37;;;10.20;99.90;;;;;;5065399;28;20501;-66
2022/05/01 02:09:32;;;;;;;35.57;28.10;;;10.10;99.90;;;;;;5053940;28;20840;-66
2022/05/01 02:12:25;;;;;;;37.90;26.30;;;10.20;99.90;;;;;;5061205;28;20884;-67
2022/05/01 02:18:19;;;;;;;37.40;27.93;;;10.20;99.90;;;;;;5065923;28;20938;-66
2022/05/01 02:24:03;;;;;;;44.30;29.93;;;10.10;99.90;;;;;;5070522;28;20466;-67
2022/05/01 02:29:49;;;;;;;44.00;32.47;;;10.00;99.90;;;;;;5066752;28;20475;-66
2022/05/01 02:32:35;;;;;;;38.77;30.30;;;9.90;99.90;;;;;;5070449;28;20533;-66
2022/05/01 02:44:38;;;;;;;38.67;28.23;;;9.90;99.90;;;;;;5067188;28;20523;-66
2022/05/01 02:47:22;;;;;;;45.70;29.17;;;9.90;99.90;;;;;;5069489;28;20458;-66
2022/05/01 02:50:11;;;;;;;39.50;28.43;;;9.90;99.90;;;;;;5067810;28;20455;-66
2022/05/01 02:52:54;;;;;;;46.43;29.93;;;9.80;99.90;;;;;;5069592;28;20466;-67
2022/05/01 02:55:39;;;;;;;38.47;29.80;;;9.80;99.90;;;;;;5068247;28;20923;-66
2022/05/01 02:58:18;;;;;;;45.77;31.00;;;9.70;99.90;;;;;;5068605;28;20439;-66
2022/05/01 03:07:07;;;;;;;43.80;30.17;;;9.60;99.90;;;;;;5056550;28;20439;-67
2022/05/01 03:09:42;;;;;;;39.73;28.83;;;9.60;99.90;;;;;;5051373;28;20497;-66
2022/05/01 03:12:18;;;;;;;39.37;29.90;;;9.60;99.90;;;;;;5049877;28;20823;-66
2022/05/01 03:24:00;;;;;;;39.07;27.60;;;9.70;99.90;;;;;;5069329;28;20418;-66
2022/05/01 03:26:37;;;;;;;44.27;28.60;;;9.70;99.90;;;;;;5069030;28;20458;-66
2022/05/01 03:29:28;;;;;;;40.83;30.80;;;9.70;99.90;;;;;;5049750;28;20447;-66
2022/05/01 03:32:09;;;;;;;45.23;31.33;;;9.70;99.90;;;;;;5048819;28;20826;-66
2022/05/01 03:34:44;;;;;;;40.43;28.50;;;9.70;99.90;;;;;;5050116;28;20444;-67
2022/05/01 03:37:31;;;;;;;44.70;30.50;;;9.80;99.90;;;;;;5062296;28;20526;-66
2022/05/01 03:40:06;;;;;;;38.70;28.80;;;9.80;99.90;;;;;;5049879;28;20564;-66
2022/05/01 03:42:48;;;;;;;41.40;28.70;;;9.90;99.90;;;;;;5049908;28;20444;-66
2022/05/01 03:45:29;;;;;;;41.40;31.03;;;10.00;99.90;;;;;;5049956;28;20447;-66
2022/05/01 03:48:14;;;;;;;38.20;29.10;;;10.00;99.90;;;;;;5061744;28;20557;-66
2022/05/01 03:51:04;;;;;;;37.60;27.40;;;10.00;99.90;;;;;;5069003;28;20470;-67
2022/05/01 03:53:47;;;;;;;34.90;28.10;;;10.00;99.90;;;;;;5058541;28;20447;-66
2022/05/01 03:56:21;;;;;;;40.23;29.93;;;10.00;99.90;;;;;;5068859;28;20770;-66
2022/05/01 03:59:08;;;;;;;37.97;28.37;;;10.10;99.90;;;;;;5069035;28;20465;-66
2022/05/01 04:01:39;;;;;;;37.37;27.70;;;10.10;99.90;;;;;;5068285;28;20469;-66
2022/05/01 04:04:12;;;;;;;41.97;29.13;;;10.00;99.90;;;;;;5072071;28;20442;-66
2022/05/01 04:09:34;;;;;;;45.03;30.10;;;10.20;99.90;;;;;;5051590;28;20466;-66
2022/05/01 04:12:15;;;;;;;38.03;28.87;;;10.20;99.90;;;;;;5053256;28;20443;-66
2022/05/01 04:14:50;;;;;;;37.63;27.40;;;10.10;99.90;;;;;;5053078;28;20443;-66
2022/05/01 04:17:42;;;;;;;35.30;27.00;;;10.10;99.90;;;;;;5052833;28;20448;-66
2022/05/01 04:20:19;;;;;;;40.23;30.33;;;10.10;99.90;;;;;;5053039;28;20484;-67
2022/05/01 04:22:57;;;;;;;37.47;31.00;;;10.10;99.90;;;;;;5053515;28;20444;-66
2022/05/01 04:25:46;;;;;;;37.77;29.07;;;10.10;99.90;;;;;;5053158;28;20829;-66
2022/05/01 04:28:19;;;;;;;36.03;28.93;;;10.10;99.90;;;;;;5073082;28;20492;-66
2022/05/01 04:30:51;;;;;;;37.93;29.10;;;10.20;99.90;;;;;;5053347;28;20455;-67
2022/05/01 04:33:33;;;;;;;41.07;30.67;;;10.20;99.90;;;;;;5052135;28;20517;-66
2022/05/01 04:36:10;;;;;;;38.20;28.37;;;10.00;99.90;;;;;;5061935;28;20447;-67
2022/05/01 04:41:52;;;;;;;39.57;28.80;;;9.90;99.90;;;;;;5065516;28;21072;-66
2022/05/01 04:44:44;;;;;;;36.80;28.23;;;9.80;99.90;;;;;;5072425;28;20836;-67
2022/05/01 04:47:30;;;;;;;36.93;27.93;;;9.70;99.90;;;;;;5071847;28;20490;-67
2022/05/01 04:50:07;;;;;;;39.67;29.20;;;9.70;99.90;;;;;;5052476;28;20463;-66
2022/05/01 04:52:45;;;;;;;39.57;29.93;;;9.70;99.90;;;;;;5050558;28;20440;-66
2022/05/01 04:55:37;;;;;;;40.57;29.50;;;9.70;99.90;;;;;;5052766;28;20451;-66
2022/05/01 04:58:12;;;;;;;36.47;29.03;;;9.70;99.90;;;;;;5052138;28;20471;-67
2022/05/01 05:00:56;;;;;;;36.50;28.30;;;9.80;99.90;;;;;;5052566;28;20487;-66
2022/05/01 05:03:33;;;;;;;35.67;30.23;;;9.80;99.90;;;;;;5052517;28;20447;-67
2022/05/01 05:06:09;;;;;;;37.20;29.03;;;9.80;99.90;;;;;;5063769;28;20439;-66
2022/05/01 05:11:45;;;;;;;38.40;29.37;;;9.80;99.90;;;;;;5052624;28;20493;-66
2022/05/01 05:14:21;;;;;;;36.10;28.50;;;9.90;99.90;;;;;;5051769;28;20548;-66
2022/05/01 05:16:59;;;;;;;39.83;28.77;;;9.90;99.90;;;;;;5051796;28;20443;-66
2022/05/01 05:19:48;;;;;;;35.97;27.93;;;10.00;99.90;;;;;;5052091;28;20475;-66
2022/05/01 05:22:23;;;;;;;35.93;27.83;;;10.10;99.90;;;;;;5052047;28;20451;-66
2022/05/01 05:28:18;;;;;;;37.10;28.10;;;10.30;99.90;;;;;;5044135;28;20547;-66
2022/05/01 05:33:49;;;;;;;34.67;26.80;;;10.50;99.90;;;;;;5068549;28;20536;-66
2022/05/01 05:36:27;;;;;;;39.03;27.70;;;10.60;99.90;;;;;;5065990;28;20487;-66
2022/05/01 05:41:38;;;;;;;32.87;25.40;;;10.60;99.90;;;;;;5063045;28;20504;-66
2022/05/01 05:44:17;;;;;;;36.57;28.17;;;10.70;99.90;;;;;;5071219;28;20443;-66
2022/05/01 05:46:48;;;;;;;32.67;25.60;;;10.80;99.90;;;;;;5070493;28;20970;-66
2022/05/01 05:49:49;;;;;;;33.47;27.30;;;10.80;99.90;;;;;;5070535;28;20442;-66
2022/05/01 05:52:28;;;;;;;31.27;24.80;;;10.70;99.90;;;;;;5070921;28;20450;-66
2022/05/01 05:55:15;;;;;;;30.27;25.40;;;10.60;99.90;;;;;;5071145;28;20439;-67
2022/05/01 05:58:23;;;;;;;36.13;26.70;;;10.60;99.90;;;;;;5070352;28;20442;-66
2022/05/01 06:01:14;;;;;;;32.20;24.57;;;10.60;99.90;;;;;;5070703;28;20482;-66
2022/05/01 06:09:52;;;;;;;31.67;25.43;;;11.10;99.90;;;;;;4975435;28;20458;-67
2022/05/01 06:12:46;;;;;;;30.50;25.70;;;11.20;99.90;;;;;;5037616;28;20830;-66
2022/05/01 06:15:58;;;;;;;;;;;;;;;;;;;;;
2022/05/01 06:19:03;;;;;;;34.77;25.30;;;11.50;99.90;;;;;;5069743;28;20439;-66
2022/05/01 06:24:46;;;;;;;36.37;26.80;;;11.80;99.90;;;;;;5068115;28;20439;-67
2022/05/01 06:27:29;;;;;;;30.93;24.83;;;11.90;99.90;;;;;;5070198;28;20439;-67
2022/05/01 06:30:07;;;;;;;29.20;24.57;;;12.00;99.90;;;;;;5070030;28;20459;-66
2022/05/01 06:33:16;;;;;;;31.10;26.37;;;12.00;99.90;;;;;;5050889;28;20440;-66
2022/05/01 06:36:08;;;;;;;31.40;25.20;;;12.20;99.90;;;;;;5066254;28;20467;-66
2022/05/01 06:38:35;;;;;;;28.47;22.80;;;12.30;99.90;;;;;;5052392;28;20428;-66
2022/05/01 06:44:39;;;;;;;30.80;24.87;;;12.60;99.90;;;;;;5062226;28;20439;-67
2022/05/01 06:47:42;;;;;;;29.83;24.43;;;12.80;99.90;;;;;;5069824;28;20459;-67
2022/05/01 06:50:36;;;;;;;29.03;23.63;;;13.20;99.90;;;;;;5060134;28;20454;-67
2022/05/01 06:56:21;;;;;;;23.57;20.97;;;13.20;99.90;;;;;;5068023;28;20457;-67
2022/05/01 06:59:07;;;;;;;29.30;22.93;;;13.50;99.90;;;;;;5055243;28;20443;-66
2022/05/01 07:15:07;;;;;;;;;;;;;;;;;;;;;
2022/05/01 07:24:57;;;;;;;27.97;22.53;;;13.70;99.90;;;;;;4929443;29;20975;-66
2022/05/01 07:27:45;;;;;;;24.23;21.67;;;13.70;99.90;;;;;;5040977;28;20483;-66
2022/05/01 07:33:37;;;;;;;26.57;23.60;;;13.90;99.90;;;;;;5017482;28;20440;-67
2022/05/01 07:42:20;;;;;;;26.60;23.67;;;14.70;99.90;;;;;;5046376;28;20448;-67
2022/05/01 07:45:24;;;;;;;28.63;22.93;;;15.00;99.90;;;;;;5049236;28;20548;-67
2022/05/01 07:48:45;;;;;;;25.23;22.50;;;15.10;99.90;;;;;;5049918;28;20475;-66
2022/05/01 07:51:40;;;;;;;24.30;21.80;;;15.10;99.90;;;;;;5049404;28;20451;-67
2022/05/01 07:54:45;;;;;;;27.77;23.00;;;15.20;99.90;;;;;;5064239;28;20563;-66
2022/05/01 07:58:01;;;;;;;24.90;21.90;;;15.40;99.90;;;;;;5007396;28;20512;-66
2022/05/01 08:00:51;;;;;;;23.47;20.97;;;15.50;99.90;;;;;;4997184;28;20486;-67
2022/05/01 08:07:01;;;;;;;23.50;20.97;;;15.50;99.90;;;;;;5062451;28;20482;-67
2022/05/01 08:09:32;;;;;;;28.00;21.60;;;15.40;99.90;;;;;;5054109;28;20440;-67
2022/05/01 08:12:11;;;;;;;25.00;22.40;;;15.00;99.90;;;;;;5053340;28;20447;-67
2022/05/01 08:14:53;;;;;;;23.37;20.97;;;14.80;99.90;;;;;;5054455;28;20451;-68
2022/05/01 08:17:40;;;;;;;23.00;20.50;;;15.10;99.90;;;;;;5055769;28;20436;-67
2022/05/01 08:23:15;;;;;;;23.50;20.47;;;16.00;99.90;;;;;;5049070;28;20435;-67
2022/05/01 08:26:03;;;;;;;21.57;19.30;;;16.20;99.90;;;;;;5051863;28;20443;-66
2022/05/01 08:29:03;;;;;;;24.73;22.17;;;16.50;99.90;;;;;;5065998;28;20502;-67
2022/05/01 08:31:49;;;;;;;24.60;20.90;;;17.00;99.90;;;;;;5059747;28;20451;-66
2022/05/01 08:35:00;;;;;;;22.57;19.73;;;17.10;99.90;;;;;;5063244;28;20486;-66
2022/05/01 08:37:43;;;;;;;21.13;18.90;;;17.30;99.90;;;;;;5052361;28;20933;-67
2022/05/01 08:40:44;;;;;;;21.97;18.80;;;17.20;99.90;;;;;;5056427;28;20462;-67
2022/05/01 08:43:45;;;;;;;20.97;18.53;;;17.20;99.90;;;;;;5053323;28;20490;-66
2022/05/01 08:50:28;;;;;;;20.80;18.37;;;17.60;99.90;;;;;;5005091;28;20458;-66
2022/05/01 08:56:34;;;;;;;19.70;17.70;;;18.20;99.90;;;;;;5062395;28;20452;-66
2022/05/01 08:59:20;;;;;;;20.47;18.37;;;18.30;99.90;;;;;;5065827;28;20447;-66
2022/05/01 09:02:37;;;;;;;18.70;16.90;;;18.30;99.90;;;;;;5059611;28;20489;-66
2022/05/01 09:08:37;;;;;;;21.47;19.17;;;18.80;99.90;;;;;;5062705;28;20447;-66
2022/05/01 09:17:43;;;;;;;17.67;15.90;;;17.40;99.90;;;;;;5053922;28;20905;-66
2022/05/01 09:20:23;;;;;;;19.97;17.90;;;17.40;99.90;;;;;;5055237;28;20467;-66
2022/05/01 09:23:00;;;;;;;18.90;16.90;;;17.60;99.90;;;;;;5059900;28;20451;-66
2022/05/01 09:25:43;;;;;;;21.23;19.20;;;18.20;99.90;;;;;;5059831;28;20440;-65
2022/05/01 09:28:45;;;;;;;20.33;18.33;;;17.90;99.90;;;;;;5058347;28;20443;-65
2022/05/01 09:31:53;;;;;;;18.63;16.70;;;17.80;99.90;;;;;;5057722;28;20466;-66
2022/05/01 09:34:42;;;;;;;17.03;15.30;;;18.50;99.90;;;;;;5057757;28;20443;-65
2022/05/01 09:37:50;;;;;;;19.03;16.30;;;19.00;99.90;;;;;;5049105;28;20863;-65
2022/05/01 09:40:52;;;;;;;18.43;16.63;;;19.80;99.90;;;;;;5060651;28;20469;-66
2022/05/01 09:44:06;;;;;;;19.83;17.93;;;19.50;99.80;;;;;;5061204;28;20444;-66
2022/05/01 09:47:00;;;;;;;18.50;16.70;;;18.80;99.90;;;;;;5064348;28;20509;-66
2022/05/01 09:49:52;;;;;;;18.37;16.63;;;19.30;99.90;;;;;;5057951;28;20459;-65
2022/05/01 09:52:48;;;;;;;15.70;14.20;;;19.50;99.90;;;;;;5054170;28;20458;-66
2022/05/01 09:58:53;;;;;;;14.70;13.30;;;19.90;99.30;;;;;;5049730;28;20431;-66
2022/05/01 10:01:40;;;;;;;13.90;12.60;;;20.10;99.10;;;;;;5059941;28;20493;-66
2022/05/01 10:04:32;;;;;;;17.20;14.77;;;19.90;98.80;;;;;;5052837;28;21260;-66
2022/05/01 10:07:35;;;;;;;14.87;13.47;;;20.00;99.10;;;;;;5063130;28;20964;-66
2022/05/01 10:10:40;;;;;;;15.57;14.07;;;20.30;97.60;;;;;;5058794;28;20471;-66
2022/05/01 10:16:35;;;;;;;12.93;11.73;;;20.90;97.90;;;;;;5066109;28;20765;-66
2022/05/01 10:19:17;;;;;;;15.93;14.33;;;20.90;97.60;;;;;;5067315;28;20546;-66
2022/05/01 10:22:03;;;;;;;14.80;13.30;;;20.60;97.80;;;;;;5057722;28;20836;-66
2022/05/01 10:24:59;;;;;;;14.87;13.43;;;20.20;96.90;;;;;;5063995;28;20446;-65
2022/05/01 10:47:51;;;;;;;16.57;14.87;;;18.50;98.70;;;;;;5024996;28;21075;-66
2022/05/01 10:50:36;;;;;;;16.53;14.80;;;19.40;97.30;;;;;;5019304;28;21024;-66
2022/05/01 10:53:32;;;;;;;16.90;15.13;;;18.50;97.40;;;;;;5017464;28;21063;-66
2022/05/01 10:56:30;;;;;;;16.67;14.87;;;17.40;98.80;;;;;;5013332;28;20846;-66
2022/05/01 11:09:28;;;;;;;15.80;14.10;;;17.80;99.90;;;;;;5061660;28;20440;-66
2022/05/01 11:12:22;;;;;;;16.20;14.60;;;18.70;99.90;;;;;;5060884;28;20444;-66
2022/05/01 11:15:26;;;;;;;19.23;17.10;;;19.70;97.20;;;;;;5060298;28;20439;-66
2022/05/01 11:18:11;;;;;;;16.40;14.70;;;18.60;97.40;;;;;;5064518;28;20450;-66
2022/05/01 11:23:55;;;;;;;16.30;14.30;;;17.70;97.50;;;;;;5067561;28;20457;-66
2022/05/01 11:30:42;;;;;;;16.13;14.47;;;17.90;97.70;;;;;;5034815;28;20474;-66
2022/05/01 11:33:26;;;;;;;15.00;13.50;;;18.50;99.60;;;;;;5055967;28;20482;-66
2022/05/01 11:36:29;;;;;;;16.20;14.60;;;19.00;97.00;;;;;;5056575;28;20451;-66
2022/05/01 11:39:29;;;;;;;14.70;13.20;;;18.80;97.60;;;;;;5060997;28;21023;-66
2022/05/01 11:42:36;;;;;;;15.70;14.00;;;19.20;99.30;;;;;;5052377;28;20571;-66
2022/05/01 11:48:24;;;;;;;13.77;12.37;;;20.20;96.40;;;;;;5058750;28;20451;-66
2022/05/01 11:51:48;;;;;;;14.07;12.77;;;20.20;96.00;;;;;;5063750;28;20476;-65
2022/05/01 11:55:06;;;;;;;;;;;;;;;;;;;;;
2022/05/01 12:03:46;;;;;;;14.70;13.20;;;20.60;91.30;;;;;;5060824;28;21011;-66
2022/05/01 12:06:36;;;;;;;14.83;13.53;;;20.40;92.20;;;;;;5059080;28;20509;-66
2022/05/01 12:09:40;;;;;;;14.10;12.70;;;20.40;94.30;;;;;;5066802;28;20459;-66
2022/05/01 12:12:37;;;;;;;12.83;11.73;;;20.60;92.90;;;;;;5055599;28;20436;-66
2022/05/01 12:24:45;;;;;;;13.00;11.70;;;21.70;90.10;;;;;;5031856;28;20436;-66
2022/05/01 12:28:02;;;;;;;16.43;12.70;;;21.50;90.30;;;;;;5066328;28;20937;-65
2022/05/01 12:50:51;;;;;;;12.43;11.10;;;22.80;88.50;;;;;;5041890;28;20550;-67
2022/05/01 12:54:18;;;;;;;13.33;12.00;;;22.10;89.20;;;;;;5063352;28;20443;-67
2022/05/01 12:57:27;;;;;;;12.77;11.40;;;21.70;87.20;;;;;;5043163;28;20452;-65
2022/05/01 13:03:25;;;;;;;12.03;10.93;;;22.00;90.70;;;;;;5007363;28;21119;-67
2022/05/01 13:10:13;;;;;;;13.10;11.90;;;23.10;87.50;;;;;;4989929;28;20511;-67
2022/05/01 13:19:45;;;;;;;12.83;11.17;;;25.60;79.50;;;;;;5004120;28;20852;-65
2022/05/01 13:22:30;;;;;;;12.93;11.77;;;26.10;73.20;;;;;;5007934;28;20528;-67
2022/05/01 13:25:32;;;;;;;14.90;13.50;;;25.40;75.80;;;;;;5062295;28;20440;-67
2022/05/01 13:31:37;;;;;;;17.67;16.07;;;23.00;84.90;;;;;;5040676;28;20459;-65
2022/05/01 13:34:19;;;;;;;16.17;14.60;;;20.90;90.10;;;;;;5063174;28;20447;-66
2022/05/01 13:37:09;;;;;;;13.33;12.03;;;19.20;90.70;;;;;;5049692;28;20517;-64
2022/05/01 13:45:51;;;;;;;15.87;14.17;;;19.70;93.10;;;;;;5059270;28;20511;-66
2022/05/01 13:49:13;;;;;;;;;;;;;;;;;;;;;
2022/05/01 13:55:53;;;;;;;17.07;15.33;;;18.20;94.30;;;;;;5045601;28;20447;-66
2022/05/01 13:58:58;;;;;;;18.60;14.17;;;19.10;94.10;;;;;;5064696;28;20448;-66
2022/05/01 14:02:05;;;;;;;13.50;12.30;;;20.40;92.90;;;;;;5063432;28;20519;-66
2022/05/01 14:08:00;;;;;;;12.93;11.50;;;23.20;90.10;;;;;;5059508;28;20444;-65
2022/05/01 14:14:00;;;;;;;12.17;11.03;;;24.70;77.60;;;;;;5058913;28;20475;-66
2022/05/01 14:33:27;;;;;;;12.50;11.20;;;25.00;76.10;;;;;;4967831;28;20491;-66
2022/05/01 14:40:17;;;;;;;13.30;11.97;;;21.80;82.30;;;;;;5049075;28;20524;-66
2022/05/01 14:43:36;;;;;;;16.93;15.30;;;20.60;89.70;;;;;;5050396;28;20966;-64
2022/05/01 14:50:25;;;;;;;14.70;13.30;;;18.20;92.70;;;;;;5033467;28;20455;-65
2022/05/01 14:56:21;;;;;;;14.17;12.73;;;19.80;92.00;;;;;;4987245;28;20625;-66
2022/05/01 15:19:20;;;;;;;13.33;12.07;;;24.90;77.60;;;;;;4955597;28;20447;-67
2022/05/01 15:41:24;;;;;;;15.47;12.37;;;23.90;77.70;;;;;;5554356;22;20523;-65
2022/05/01 15:43:51;;;;;;;12.70;10.70;;;23.50;75.70;;;;;;5079067;28;20482;-66
2022/05/01 15:46:22;;;;;;;12.57;11.23;;;23.00;76.80;;;;;;5076417;28;20469;-64
2022/05/01 15:54:23;;;;;;;12.10;10.87;;;22.00;80.70;;;;;;5061590;28;20485;-66
2022/05/01 15:56:55;;;;;;;12.10;11.00;;;21.60;81.80;;;;;;5063759;28;20470;-66
2022/05/01 15:59:23;;;;;;;13.50;12.20;;;21.00;84.20;;;;;;5063499;28;21117;-65
2022/05/01 16:01:52;;;;;;;12.40;11.30;;;20.60;86.80;;;;;;5063798;28;20465;-65
2022/05/01 16:04:19;;;;;;;12.20;11.10;;;20.40;86.00;;;;;;5062855;28;20446;-66
2022/05/01 16:06:47;;;;;;;11.97;10.77;;;20.30;85.30;;;;;;5060113;28;20453;-65
2022/05/01 16:09:19;;;;;;;12.80;10.53;;;20.40;85.70;;;;;;5057488;28;20987;-66
2022/05/01 16:11:56;;;;;;;11.13;10.00;;;20.60;85.20;;;;;;5055515;28;20574;-67
2022/05/01 16:14:31;;;;;;;10.70;9.70;;;20.70;84.60;;;;;;5063378;28;20453;-65
2022/05/01 16:17:04;;;;;;;10.37;9.37;;;20.70;85.90;;;;;;5060317;28;20482;-67
2022/05/01 16:19:35;;;;;;;11.50;10.10;;;20.40;86.60;;;;;;5064922;28;20530;-66
2022/05/01 16:22:05;;;;;;;11.20;10.10;;;20.40;86.30;;;;;;5062954;28;20518;-68
2022/05/01 16:24:39;;;;;;;11.87;10.77;;;20.60;86.30;;;;;;5066729;28;20447;-67
2022/05/01 16:27:06;;;;;;;11.33;10.23;;;20.50;84.80;;;;;;5065525;28;20547;-66
2022/05/01 16:29:45;;;;;;;9.93;8.93;;;20.20;85.80;;;;;;5067287;28;20526;-66
2022/05/01 16:32:17;;;;;;;10.77;9.77;;;20.20;87.90;;;;;;5066246;28;20458;-66
2022/05/01 16:34:52;;;;;;;11.13;10.13;;;20.20;87.70;;;;;;5064029;28;20504;-66
2022/05/01 16:37:22;;;;;;;10.50;9.53;;;20.20;88.60;;;;;;5067209;28;20850;-65
2022/05/01 16:39:50;;;;;;;11.37;10.17;;;20.00;87.80;;;;;;5067114;28;20452;-65
2022/05/01 16:42:18;;;;;;;11.10;10.20;;;19.80;90.00;;;;;;5066975;28;20479;-66
2022/05/01 16:44:46;;;;;;;11.93;10.70;;;19.70;90.00;;;;;;5067236;28;20454;-67
2022/05/01 16:47:15;;;;;;;10.97;10.03;;;19.20;90.00;;;;;;5067162;28;20450;-66
2022/05/01 16:49:44;;;;;;;11.67;10.47;;;19.00;91.10;;;;;;5067163;28;20449;-65
2022/05/01 16:52:11;;;;;;;10.40;9.40;;;18.80;91.40;;;;;;5063831;28;21255;-68
2022/05/01 16:54:40;;;;;;;12.80;10.60;;;18.70;91.30;;;;;;5060261;28;21005;-65
2022/05/01 16:57:08;;;;;;;11.73;10.73;;;18.60;91.70;;;;;;5066829;28;20450;-66
2022/05/01 16:59:36;;;;;;;12.10;10.37;;;18.40;91.50;;;;;;5058444;28;20456;-67
2022/05/01 17:02:15;;;;;;;10.40;9.50;;;18.20;92.00;;;;;;5056196;28;20466;-69
2022/05/01 17:04:44;;;;;;;12.27;11.07;;;18.30;92.90;;;;;;5051827;28;20534;-68
2022/05/01 17:07:22;;;;;;;10.73;9.63;;;18.10;92.30;;;;;;5053862;28;20524;-67
2022/05/01 17:09:57;;;;;;;11.80;10.60;;;17.90;92.60;;;;;;5060651;28;20462;-65
2022/05/01 17:12:36;;;;;;;13.27;11.77;;;17.60;93.60;;;;;;5064286;28;20530;-66
2022/05/01 17:15:09;;;;;;;12.87;11.43;;;17.30;94.30;;;;;;5068151;28;20443;-66
2022/05/01 17:18:05;;;;;;;12.47;11.23;;;17.00;94.80;;;;;;5061267;28;20447;-66
2022/05/01 17:20:35;;;;;;;12.13;11.03;;;16.80;94.90;;;;;;5063554;28;20471;-66
2022/05/01 17:23:04;;;;;;;14.03;12.70;;;16.60;96.10;;;;;;5068668;28;21015;-67
2022/05/01 17:25:38;;;;;;;12.70;11.50;;;16.40;96.30;;;;;;5066700;28;20444;-68
2022/05/01 17:28:06;;;;;;;15.13;13.73;;;16.30;97.30;;;;;;5067885;28;20504;-67
2022/05/01 17:30:42;;;;;;;13.73;12.43;;;16.20;98.30;;;;;;5069156;28;20469;-68
2022/05/01 17:33:19;;;;;;;13.67;12.37;;;16.10;99.00;;;;;;5069964;28;20457;-67
2022/05/01 17:35:54;;;;;;;13.87;12.63;;;16.00;99.60;;;;;;5066737;28;20453;-66
2022/05/01 17:38:23;;;;;;;13.27;11.93;;;15.90;99.80;;;;;;5067503;28;20446;-65
2022/05/01 17:40:50;;;;;;;14.20;12.80;;;15.80;99.90;;;;;;5066297;28;20478;-66
2022/05/01 17:43:20;;;;;;;13.40;12.10;;;15.70;99.90;;;;;;5062811;28;20486;-64
2022/05/01 17:45:50;;;;;;;14.43;13.03;;;15.70;99.90;;;;;;5066554;28;20435;-65
2022/05/01 17:48:19;;;;;;;14.43;13.00;;;15.60;99.90;;;;;;5068331;28;20526;-64
2022/05/01 17:50:48;;;;;;;14.90;13.50;;;15.60;99.90;;;;;;5068913;28;20505;-65
2022/05/01 17:53:16;;;;;;;16.33;13.20;;;15.60;99.90;;;;;;5063335;28;20446;-64
2022/05/01 17:55:43;;;;;;;14.17;12.73;;;15.60;99.90;;;;;;5063110;28;20451;-65
2022/05/01 17:58:10;;;;;;;14.00;12.40;;;15.70;99.90;;;;;;5069453;28;20445;-66
2022/05/01 18:00:47;;;;;;;12.77;11.43;;;15.70;99.90;;;;;;5064193;28;20473;-65
2022/05/01 18:03:28;;;;;;;13.50;9.67;;;15.70;99.90;;;;;;5069855;28;20505;-65
2022/05/01 18:12:26;;;;;;;9.80;8.90;;;15.30;99.90;;;;;;5069256;28;20492;-66
2022/05/01 18:15:00;;;;;;;11.80;10.70;;;15.10;99.90;;;;;;5023785;28;20463;-67
2022/05/01 18:17:45;;;;;;;10.53;9.20;;;15.00;99.90;;;;;;5067830;28;20448;-66
2022/05/01 18:20:14;;;;;;;9.73;8.73;;;15.00;99.90;;;;;;5066020;28;20470;-66
2022/05/01 18:22:55;;;;;;;10.30;9.40;;;14.90;99.90;;;;;;5069400;28;20453;-67
2022/05/01 18:25:31;;;;;;;11.23;10.13;;;14.90;99.90;;;;;;5068368;28;20443;-64
2022/05/01 18:28:03;;;;;;;11.73;9.90;;;14.80;99.90;;;;;;5058772;28;20455;-66
2022/05/01 18:30:37;;;;;;;10.07;9.00;;;14.80;99.90;;;;;;5061265;28;20486;-66
2022/05/01 18:33:25;;;;;;;9.50;8.57;;;14.70;99.90;;;;;;5063722;28;20515;-67
2022/05/01 18:36:02;;;;;;;8.33;7.50;;;14.70;99.90;;;;;;5065843;28;21020;-67
2022/05/01 18:38:33;;;;;;;8.93;8.07;;;14.60;99.90;;;;;;5066442;28;20457;-67
2022/05/01 18:41:02;;;;;;;9.70;8.37;;;14.60;99.90;;;;;;5065434;28;20466;-68
2022/05/01 18:43:30;;;;;;;8.83;7.93;;;14.50;99.90;;;;;;5063876;28;20483;-66
2022/05/01 18:45:59;;;;;;;8.80;8.00;;;14.50;99.90;;;;;;5056538;28;20478;-66
2022/05/01 18:48:28;;;;;;;8.73;7.93;;;14.40;99.90;;;;;;5058247;28;20891;-65
2022/05/01 18:50:59;;;;;;;9.43;8.63;;;14.40;99.90;;;;;;5061036;28;20471;-65
2022/05/01 18:53:27;;;;;;;9.40;8.50;;;14.30;99.90;;;;;;5064677;28;20440;-64
2022/05/01 18:55:54;;;;;;;10.23;9.30;;;14.30;99.90;;;;;;5062792;28;20451;-66
2022/05/01 18:58:22;;;;;;;9.23;8.33;;;14.30;99.90;;;;;;5059700;28;20455;-65
2022/05/01 19:00:52;;;;;;;9.90;8.90;;;14.20;99.90;;;;;;5062390;28;20473;-66
2022/05/01 19:03:19;;;;;;;10.23;9.33;;;14.20;99.90;;;;;;5062951;28;20479;-66
2022/05/01 19:05:56;;;;;;;10.30;8.73;;;14.10;99.90;;;;;;5060315;28;20447;-65
2022/05/01 19:08:41;;;;;;;10.37;9.37;;;14.10;99.90;;;;;;5064324;28;20894;-66
2022/05/01 19:11:15;;;;;;;10.20;9.27;;;14.10;99.90;;;;;;5057973;28;20467;-67
2022/05/01 19:13:52;;;;;;;9.80;8.63;;;14.10;99.90;;;;;;5059272;28;20453;-66
2022/05/01 19:16:34;;;;;;;8.83;7.93;;;14.00;99.90;;;;;;5059110;28;20450;-66
2022/05/01 19:19:11;;;;;;;11.17;10.10;;;13.90;99.90;;;;;;5060502;28;20455;-66
2022/05/01 19:22:01;;;;;;;10.40;9.40;;;13.80;99.90;;;;;;5062729;28;20840;-66
2022/05/01 19:27:54;;;;;;;11.07;10.10;;;13.60;99.90;;;;;;5030346;28;21164;-66
2022/05/01 19:30:23;;;;;;;11.70;10.70;;;13.60;99.90;;;;;;5062100;28;20458;-68
2022/05/01 19:33:03;;;;;;;11.87;10.67;;;13.70;99.90;;;;;;5064970;28;20629;-64
2022/05/01 19:35:32;;;;;;;11.93;10.80;;;13.60;99.90;;;;;;5060616;28;20439;-65
2022/05/01 19:38:06;;;;;;;10.77;9.87;;;13.50;99.90;;;;;;5057602;28;20444;-67
2022/05/01 19:40:41;;;;;;;11.07;10.07;;;13.60;99.90;;;;;;5062094;28;20474;-67
2022/05/01 19:43:26;;;;;;;11.60;10.50;;;13.60;99.90;;;;;;5065760;28;20870;-68
2022/05/01 19:46:02;;;;;;;11.90;10.70;;;13.60;99.90;;;;;;5059997;28;20588;-66
2022/05/01 19:54:06;;;;;;;11.03;9.97;;;13.60;99.90;;;;;;5058375;28;20447;-66
2022/05/01 19:56:37;;;;;;;10.93;9.83;;;13.60;99.90;;;;;;5055279;28;20451;-67